sensor_id;sensor_type;location;lat;lon;timestamp;temperature;humidity
58413;DHT22;44209;52.952;6.790;2023-07-02T00:00:59;16.20;99.90
58413;DHT22;44209;52.952;6.790;2023-07-02T00:03:25;16.20;99.90
58413;DHT22;44209;52.952;6.790;2023-07-02T00:05:51;16.20;99.90
58413;DHT22;44209;52.952;6.790;2023-07-02T00:08:21;16.10;99.90
58413;DHT22;44209;52.952;6.790;2023-07-02T00:10:46;16.10;99.90
58413;DHT22;44209;52.952;6.790;2023-07-02T00:13:13;16.10;99.90
58413;DHT22;44209;52.952;6.790;2023-07-02T00:15:39;16.10;99.90
58413;DHT22;44209;52.952;6.790;2023-07-02T00:18:05;16.00;99.90
58413;DHT22;44209;52.952;6.790;2023-07-02T00:20:32;16.00;99.90
58413;DHT22;44209;52.952;6.790;2023-07-02T00:23:00;16.00;99.90
58413;DHT22;44209;52.952;6.790;2023-07-02T00:25:26;16.00;99.90
58413;DHT22;44209;52.952;6.790;2023-07-02T00:27:52;16.00;99.90
58413;DHT22;44209;52.952;6.790;2023-07-02T00:30:18;16.00;99.90
58413;DHT22;44209;52.952;6.790;2023-07-02T00:32:43;16.00;99.90
58413;DHT22;44209;52.952;6.790;2023-07-02T00:35:09;16.10;99.90
58413;DHT22;44209;52.952;6.790;2023-07-02T00:37:35;16.00;99.90
58413;DHT22;44209;52.952;6.790;2023-07-02T00:40:00;16.00;99.90
58413;DHT22;44209;52.952;6.790;2023-07-02T00:42:27;16.10;99.90
58413;DHT22;44209;52.952;6.790;2023-07-02T00:44:55;16.00;99.90
58413;DHT22;44209;52.952;6.790;2023-07-02T00:47:23;16.00;99.90
58413;DHT22;44209;52.952;6.790;2023-07-02T00:49:50;16.00;99.90
58413;DHT22;44209;52.952;6.790;2023-07-02T00:52:16;16.00;99.90
58413;DHT22;44209;52.952;6.790;2023-07-02T00:54:45;15.90;99.90
58413;DHT22;44209;52.952;6.790;2023-07-02T00:57:11;15.90;99.90
58413;DHT22;44209;52.952;6.790;2023-07-02T00:59:37;15.80;99.90
58413;DHT22;44209;52.952;6.790;2023-07-02T01:02:04;15.80;99.90
58413;DHT22;44209;52.952;6.790;2023-07-02T01:04:30;15.70;99.90
58413;DHT22;44209;52.952;6.790;2023-07-02T01:06:56;15.70;99.90
58413;DHT22;44209;52.952;6.790;2023-07-02T01:09:25;15.70;99.90
58413;DHT22;44209;52.952;6.790;2023-07-02T01:12:01;15.60;99.90
58413;DHT22;44209;52.952;6.790;2023-07-02T01:14:31;15.60;99.90
58413;DHT22;44209;52.952;6.790;2023-07-02T01:16:57;15.60;99.90
58413;DHT22;44209;52.952;6.790;2023-07-02T01:19:46;15.60;99.90
58413;DHT22;44209;52.952;6.790;2023-07-02T01:22:18;15.50;99.90
58413;DHT22;44209;52.952;6.790;2023-07-02T01:24:45;15.40;99.90
58413;DHT22;44209;52.952;6.790;2023-07-02T01:27:15;15.40;99.90
58413;DHT22;44209;52.952;6.790;2023-07-02T01:29:41;15.30;99.90
58413;DHT22;44209;52.952;6.790;2023-07-02T01:32:08;15.30;99.90
58413;DHT22;44209;52.952;6.790;2023-07-02T01:34:34;15.20;99.90
58413;DHT22;44209;52.952;6.790;2023-07-02T01:37:01;15.20;99.90
58413;DHT22;44209;52.952;6.790;2023-07-02T01:39:26;15.20;99.90
58413;DHT22;44209;52.952;6.790;2023-07-02T01:42:06;15.10;99.90
58413;DHT22;44209;52.952;6.790;2023-07-02T01:44:32;15.10;99.90
58413;DHT22;44209;52.952;6.790;2023-07-02T01:46:58;15.10;99.90
58413;DHT22;44209;52.952;6.790;2023-07-02T01:49:24;15.10;99.90
58413;DHT22;44209;52.952;6.790;2023-07-02T01:51:51;15.10;99.90
58413;DHT22;44209;52.952;6.790;2023-07-02T01:54:22;15.00;99.90
58413;DHT22;44209;52.952;6.790;2023-07-02T01:56:48;14.90;99.90
58413;DHT22;44209;52.952;6.790;2023-07-02T01:59:14;14.90;99.90
58413;DHT22;44209;52.952;6.790;2023-07-02T02:01:41;14.90;99.90
58413;DHT22;44209;52.952;6.790;2023-07-02T02:04:07;14.80;99.90
58413;DHT22;44209;52.952;6.790;2023-07-02T02:06:33;14.80;99.90
58413;DHT22;44209;52.952;6.790;2023-07-02T02:09:00;14.80;99.90
58413;DHT22;44209;52.952;6.790;2023-07-02T02:11:25;14.80;99.90
58413;DHT22;44209;52.952;6.790;2023-07-02T02:13:51;14.80;99.90
58413;DHT22;44209;52.952;6.790;2023-07-02T02:16:17;14.80;99.90
58413;DHT22;44209;52.952;6.790;2023-07-02T02:18:43;14.70;99.90
58413;DHT22;44209;52.952;6.790;2023-07-02T02:21:09;14.70;99.90
58413;DHT22;44209;52.952;6.790;2023-07-02T02:23:34;14.70;99.90
58413;DHT22;44209;52.952;6.790;2023-07-02T02:26:00;14.70;99.90
58413;DHT22;44209;52.952;6.790;2023-07-02T02:28:26;14.70;99.90
58413;DHT22;44209;52.952;6.790;2023-07-02T02:30:52;14.60;99.90
58413;DHT22;44209;52.952;6.790;2023-07-02T02:33:17;14.60;99.90
58413;DHT22;44209;52.952;6.790;2023-07-02T02:35:43;14.60;99.90
58413;DHT22;44209;52.952;6.790;2023-07-02T02:38:09;14.60;99.90
58413;DHT22;44209;52.952;6.790;2023-07-02T02:40:34;14.50;99.90
58413;DHT22;44209;52.952;6.790;2023-07-02T02:43:00;14.50;99.90
58413;DHT22;44209;52.952;6.790;2023-07-02T02:45:26;14.50;99.90
58413;DHT22;44209;52.952;6.790;2023-07-02T02:47:52;14.40;99.90
58413;DHT22;44209;52.952;6.790;2023-07-02T02:50:17;14.40;99.90
58413;DHT22;44209;52.952;6.790;2023-07-02T02:52:43;14.40;99.90
58413;DHT22;44209;52.952;6.790;2023-07-02T02:55:09;14.30;99.90
58413;DHT22;44209;52.952;6.790;2023-07-02T02:57:36;14.30;99.90
58413;DHT22;44209;52.952;6.790;2023-07-02T03:00:02;14.20;99.90
58413;DHT22;44209;52.952;6.790;2023-07-02T03:02:28;14.20;99.90
58413;DHT22;44209;52.952;6.790;2023-07-02T03:04:54;14.10;99.90
58413;DHT22;44209;52.952;6.790;2023-07-02T03:07:20;14.20;99.90
58413;DHT22;44209;52.952;6.790;2023-07-02T03:09:45;14.20;99.90
58413;DHT22;44209;52.952;6.790;2023-07-02T03:12:11;14.10;99.90
58413;DHT22;44209;52.952;6.790;2023-07-02T03:14:37;14.20;99.90
58413;DHT22;44209;52.952;6.790;2023-07-02T03:17:02;14.10;99.90
58413;DHT22;44209;52.952;6.790;2023-07-02T03:19:28;14.10;99.90
58413;DHT22;44209;52.952;6.790;2023-07-02T03:21:54;14.10;99.90
58413;DHT22;44209;52.952;6.790;2023-07-02T03:24:20;14.00;99.90
58413;DHT22;44209;52.952;6.790;2023-07-02T03:26:45;14.00;99.90
58413;DHT22;44209;52.952;6.790;2023-07-02T03:29:11;14.00;99.90
58413;DHT22;44209;52.952;6.790;2023-07-02T03:31:37;14.00;99.90
58413;DHT22;44209;52.952;6.790;2023-07-02T03:34:08;14.00;99.90
58413;DHT22;44209;52.952;6.790;2023-07-02T03:36:35;14.00;99.90
58413;DHT22;44209;52.952;6.790;2023-07-02T03:39:00;14.00;99.90
58413;DHT22;44209;52.952;6.790;2023-07-02T03:41:27;14.00;99.90
58413;DHT22;44209;52.952;6.790;2023-07-02T03:43:53;14.00;99.90
58413;DHT22;44209;52.952;6.790;2023-07-02T03:46:18;14.10;99.90
58413;DHT22;44209;52.952;6.790;2023-07-02T03:48:44;14.10;99.90
58413;DHT22;44209;52.952;6.790;2023-07-02T03:51:10;14.20;99.90
58413;DHT22;44209;52.952;6.790;2023-07-02T03:53:38;14.30;99.90
58413;DHT22;44209;52.952;6.790;2023-07-02T03:56:04;14.30;99.90
58413;DHT22;44209;52.952;6.790;2023-07-02T03:58:29;14.40;99.90
58413;DHT22;44209;52.952;6.790;2023-07-02T04:00:55;14.30;99.90
58413;DHT22;44209;52.952;6.790;2023-07-02T04:03:21;14.40;99.90
58413;DHT22;44209;52.952;6.790;2023-07-02T04:05:46;14.30;99.90
58413;DHT22;44209;52.952;6.790;2023-07-02T04:08:12;14.30;99.90
58413;DHT22;44209;52.952;6.790;2023-07-02T04:10:38;14.30;99.90
58413;DHT22;44209;52.952;6.790;2023-07-02T04:13:03;14.30;99.90
58413;DHT22;44209;52.952;6.790;2023-07-02T04:15:29;14.30;99.90
58413;DHT22;44209;52.952;6.790;2023-07-02T04:17:56;14.30;99.90
58413;DHT22;44209;52.952;6.790;2023-07-02T04:20:21;14.30;99.90
58413;DHT22;44209;52.952;6.790;2023-07-02T04:22:47;14.40;99.90
58413;DHT22;44209;52.952;6.790;2023-07-02T04:25:14;14.30;99.90
58413;DHT22;44209;52.952;6.790;2023-07-02T04:27:44;14.40;99.90
58413;DHT22;44209;52.952;6.790;2023-07-02T04:30:11;14.40;99.90
58413;DHT22;44209;52.952;6.790;2023-07-02T04:32:37;14.50;99.90
58413;DHT22;44209;52.952;6.790;2023-07-02T04:35:08;14.60;99.90
58413;DHT22;44209;52.952;6.790;2023-07-02T04:37:34;14.70;99.90
58413;DHT22;44209;52.952;6.790;2023-07-02T04:40:00;14.70;99.90
58413;DHT22;44209;52.952;6.790;2023-07-02T04:42:26;14.70;99.90
58413;DHT22;44209;52.952;6.790;2023-07-02T04:44:56;14.70;99.90
58413;DHT22;44209;52.952;6.790;2023-07-02T04:47:21;14.70;99.90
58413;DHT22;44209;52.952;6.790;2023-07-02T04:49:47;14.80;99.90
58413;DHT22;44209;52.952;6.790;2023-07-02T04:52:13;14.90;99.90
58413;DHT22;44209;52.952;6.790;2023-07-02T04:54:38;15.10;99.90
58413;DHT22;44209;52.952;6.790;2023-07-02T04:57:04;15.00;99.90
58413;DHT22;44209;52.952;6.790;2023-07-02T04:59:30;15.10;99.90
58413;DHT22;44209;52.952;6.790;2023-07-02T05:01:56;15.00;99.90
58413;DHT22;44209;52.952;6.790;2023-07-02T05:04:21;15.00;99.90
58413;DHT22;44209;52.952;6.790;2023-07-02T05:06:47;14.90;99.90
58413;DHT22;44209;52.952;6.790;2023-07-02T05:09:13;14.90;99.90
58413;DHT22;44209;52.952;6.790;2023-07-02T05:11:38;14.90;99.90
58413;DHT22;44209;52.952;6.790;2023-07-02T05:14:04;14.90;99.90
58413;DHT22;44209;52.952;6.790;2023-07-02T05:16:30;14.90;99.90
58413;DHT22;44209;52.952;6.790;2023-07-02T05:18:56;14.90;99.90
58413;DHT22;44209;52.952;6.790;2023-07-02T05:21:22;15.00;99.90
58413;DHT22;44209;52.952;6.790;2023-07-02T05:23:48;15.00;99.90
58413;DHT22;44209;52.952;6.790;2023-07-02T05:26:14;15.10;99.90
58413;DHT22;44209;52.952;6.790;2023-07-02T05:28:40;15.10;99.90
58413;DHT22;44209;52.952;6.790;2023-07-02T05:31:05;15.20;99.90
58413;DHT22;44209;52.952;6.790;2023-07-02T05:33:31;15.20;99.90
58413;DHT22;44209;52.952;6.790;2023-07-02T05:35:58;15.20;99.90
58413;DHT22;44209;52.952;6.790;2023-07-02T05:38:24;15.20;99.90
58413;DHT22;44209;52.952;6.790;2023-07-02T05:40:50;15.30;99.90
58413;DHT22;44209;52.952;6.790;2023-07-02T05:43:16;15.40;99.90
58413;DHT22;44209;52.952;6.790;2023-07-02T05:45:42;15.50;99.90
58413;DHT22;44209;52.952;6.790;2023-07-02T05:48:07;15.60;99.90
58413;DHT22;44209;52.952;6.790;2023-07-02T05:50:33;15.60;99.90
58413;DHT22;44209;52.952;6.790;2023-07-02T05:52:59;15.70;99.90
58413;DHT22;44209;52.952;6.790;2023-07-02T05:55:25;15.90;99.90
58413;DHT22;44209;52.952;6.790;2023-07-02T05:57:51;16.00;99.90
58413;DHT22;44209;52.952;6.790;2023-07-02T06:00:16;16.10;99.90
58413;DHT22;44209;52.952;6.790;2023-07-02T06:02:42;16.10;99.90
58413;DHT22;44209;52.952;6.790;2023-07-02T06:05:08;16.20;99.90
58413;DHT22;44209;52.952;6.790;2023-07-02T06:07:34;16.40;99.90
58413;DHT22;44209;52.952;6.790;2023-07-02T06:10:00;16.40;99.90
58413;DHT22;44209;52.952;6.790;2023-07-02T06:12:25;16.50;99.90
58413;DHT22;44209;52.952;6.790;2023-07-02T06:14:51;16.60;99.90
58413;DHT22;44209;52.952;6.790;2023-07-02T06:17:17;16.70;99.90
58413;DHT22;44209;52.952;6.790;2023-07-02T06:19:44;16.80;99.90
58413;DHT22;44209;52.952;6.790;2023-07-02T06:22:10;16.80;99.90
58413;DHT22;44209;52.952;6.790;2023-07-02T06:24:35;16.80;99.90
58413;DHT22;44209;52.952;6.790;2023-07-02T06:27:01;16.70;99.90
58413;DHT22;44209;52.952;6.790;2023-07-02T06:29:28;16.70;99.90
58413;DHT22;44209;52.952;6.790;2023-07-02T06:31:54;16.70;99.90
58413;DHT22;44209;52.952;6.790;2023-07-02T06:34:20;16.70;99.90
58413;DHT22;44209;52.952;6.790;2023-07-02T06:36:46;16.80;99.90
58413;DHT22;44209;52.952;6.790;2023-07-02T06:39:11;17.00;99.90
58413;DHT22;44209;52.952;6.790;2023-07-02T06:41:37;17.20;99.90
58413;DHT22;44209;52.952;6.790;2023-07-02T06:44:03;17.20;99.90
58413;DHT22;44209;52.952;6.790;2023-07-02T06:46:30;17.10;99.90
58413;DHT22;44209;52.952;6.790;2023-07-02T06:48:56;17.00;99.90
58413;DHT22;44209;52.952;6.790;2023-07-02T06:51:22;16.90;99.90
58413;DHT22;44209;52.952;6.790;2023-07-02T06:53:48;16.70;99.90
58413;DHT22;44209;52.952;6.790;2023-07-02T06:56:14;16.50;99.90
58413;DHT22;44209;52.952;6.790;2023-07-02T06:58:42;16.30;99.90
58413;DHT22;44209;52.952;6.790;2023-07-02T07:01:09;16.20;99.90
58413;DHT22;44209;52.952;6.790;2023-07-02T07:03:35;16.10;99.90
58413;DHT22;44209;52.952;6.790;2023-07-02T07:06:01;16.20;99.90
58413;DHT22;44209;52.952;6.790;2023-07-02T07:08:26;16.50;99.90
58413;DHT22;44209;52.952;6.790;2023-07-02T07:10:52;16.80;99.90
58413;DHT22;44209;52.952;6.790;2023-07-02T07:13:18;16.90;99.90
58413;DHT22;44209;52.952;6.790;2023-07-02T07:15:44;16.90;99.90
58413;DHT22;44209;52.952;6.790;2023-07-02T07:18:09;16.90;99.90
58413;DHT22;44209;52.952;6.790;2023-07-02T07:20:35;16.80;99.90
58413;DHT22;44209;52.952;6.790;2023-07-02T07:23:05;16.80;99.90
58413;DHT22;44209;52.952;6.790;2023-07-02T07:25:31;16.70;99.90
58413;DHT22;44209;52.952;6.790;2023-07-02T07:27:59;16.60;99.90
58413;DHT22;44209;52.952;6.790;2023-07-02T07:30:24;16.60;99.90
58413;DHT22;44209;52.952;6.790;2023-07-02T07:32:51;16.60;99.90
58413;DHT22;44209;52.952;6.790;2023-07-02T07:35:18;16.60;99.90
58413;DHT22;44209;52.952;6.790;2023-07-02T07:37:44;16.70;99.90
58413;DHT22;44209;52.952;6.790;2023-07-02T07:40:11;16.90;99.90
58413;DHT22;44209;52.952;6.790;2023-07-02T07:42:36;17.20;99.90
58413;DHT22;44209;52.952;6.790;2023-07-02T07:45:03;17.50;99.90
58413;DHT22;44209;52.952;6.790;2023-07-02T07:47:29;17.60;99.90
58413;DHT22;44209;52.952;6.790;2023-07-02T07:49:55;17.90;99.90
58413;DHT22;44209;52.952;6.790;2023-07-02T07:52:21;18.00;99.90
58413;DHT22;44209;52.952;6.790;2023-07-02T07:54:46;18.10;99.90
58413;DHT22;44209;52.952;6.790;2023-07-02T07:57:13;18.00;99.90
58413;DHT22;44209;52.952;6.790;2023-07-02T07:59:39;17.90;99.90
58413;DHT22;44209;52.952;6.790;2023-07-02T08:02:05;17.70;99.90
58413;DHT22;44209;52.952;6.790;2023-07-02T08:04:31;17.50;99.90
58413;DHT22;44209;52.952;6.790;2023-07-02T08:06:57;17.40;99.90
58413;DHT22;44209;52.952;6.790;2023-07-02T08:09:26;17.30;99.90
58413;DHT22;44209;52.952;6.790;2023-07-02T08:11:51;17.30;99.90
58413;DHT22;44209;52.952;6.790;2023-07-02T08:14:17;17.50;99.90
58413;DHT22;44209;52.952;6.790;2023-07-02T08:16:44;17.60;99.90
58413;DHT22;44209;52.952;6.790;2023-07-02T08:19:10;17.70;99.90
58413;DHT22;44209;52.952;6.790;2023-07-02T08:21:36;17.60;99.90
58413;DHT22;44209;52.952;6.790;2023-07-02T08:24:03;17.40;99.90
58413;DHT22;44209;52.952;6.790;2023-07-02T08:26:29;17.30;99.90
58413;DHT22;44209;52.952;6.790;2023-07-02T08:28:54;17.20;99.90
58413;DHT22;44209;52.952;6.790;2023-07-02T08:31:20;17.30;99.90
58413;DHT22;44209;52.952;6.790;2023-07-02T08:33:46;17.60;99.90
58413;DHT22;44209;52.952;6.790;2023-07-02T08:36:12;17.70;99.90
58413;DHT22;44209;52.952;6.790;2023-07-02T08:38:39;17.70;99.90
58413;DHT22;44209;52.952;6.790;2023-07-02T08:41:07;17.80;99.90
58413;DHT22;44209;52.952;6.790;2023-07-02T08:43:33;18.00;99.90
58413;DHT22;44209;52.952;6.790;2023-07-02T08:46:01;18.00;99.90
58413;DHT22;44209;52.952;6.790;2023-07-02T08:48:27;17.90;99.90
58413;DHT22;44209;52.952;6.790;2023-07-02T08:50:55;17.90;99.90
58413;DHT22;44209;52.952;6.790;2023-07-02T08:53:21;17.80;99.90
58413;DHT22;44209;52.952;6.790;2023-07-02T08:55:51;17.70;99.90
58413;DHT22;44209;52.952;6.790;2023-07-02T08:58:16;17.50;99.90
58413;DHT22;44209;52.952;6.790;2023-07-02T09:01:09;17.40;99.90
58413;DHT22;44209;52.952;6.790;2023-07-02T09:03:35;17.30;99.90
58413;DHT22;44209;52.952;6.790;2023-07-02T09:06:08;17.10;99.90
58413;DHT22;44209;52.952;6.790;2023-07-02T09:08:34;17.10;99.90
58413;DHT22;44209;52.952;6.790;2023-07-02T09:11:11;17.50;99.90
58413;DHT22;44209;52.952;6.790;2023-07-02T09:13:50;17.80;99.90
58413;DHT22;44209;52.952;6.790;2023-07-02T09:16:29;17.80;99.90
58413;DHT22;44209;52.952;6.790;2023-07-02T09:19:04;17.70;99.90
58413;DHT22;44209;52.952;6.790;2023-07-02T09:21:47;17.50;99.90
58413;DHT22;44209;52.952;6.790;2023-07-02T09:24:20;17.30;99.90
58413;DHT22;44209;52.952;6.790;2023-07-02T09:26:48;17.10;99.90
58413;DHT22;44209;52.952;6.790;2023-07-02T09:29:31;16.90;99.90
58413;DHT22;44209;52.952;6.790;2023-07-02T09:32:02;17.00;99.90
58413;DHT22;44209;52.952;6.790;2023-07-02T09:34:30;17.10;99.90
58413;DHT22;44209;52.952;6.790;2023-07-02T09:36:57;17.20;99.90
58413;DHT22;44209;52.952;6.790;2023-07-02T09:39:33;17.30;99.90
58413;DHT22;44209;52.952;6.790;2023-07-02T09:42:02;17.40;99.90
58413;DHT22;44209;52.952;6.790;2023-07-02T09:44:29;17.40;99.90
58413;DHT22;44209;52.952;6.790;2023-07-02T09:49:32;17.40;99.90
58413;DHT22;44209;52.952;6.790;2023-07-02T09:52:04;17.40;99.90
58413;DHT22;44209;52.952;6.790;2023-07-02T09:54:30;17.40;99.90
58413;DHT22;44209;52.952;6.790;2023-07-02T09:56:57;17.40;99.90
58413;DHT22;44209;52.952;6.790;2023-07-02T09:59:23;17.40;99.90
58413;DHT22;44209;52.952;6.790;2023-07-02T10:01:50;17.40;99.90
58413;DHT22;44209;52.952;6.790;2023-07-02T10:04:17;17.40;99.90
58413;DHT22;44209;52.952;6.790;2023-07-02T10:06:48;17.50;99.90
58413;DHT22;44209;52.952;6.790;2023-07-02T10:09:14;17.80;99.90
58413;DHT22;44209;52.952;6.790;2023-07-02T10:11:40;18.00;99.90
58413;DHT22;44209;52.952;6.790;2023-07-02T10:14:06;18.00;99.90
58413;DHT22;44209;52.952;6.790;2023-07-02T10:16:31;18.10;99.90
58413;DHT22;44209;52.952;6.790;2023-07-02T10:19:11;18.20;99.90
58413;DHT22;44209;52.952;6.790;2023-07-02T10:21:37;18.60;99.90
58413;DHT22;44209;52.952;6.790;2023-07-02T10:24:16;18.80;99.90
58413;DHT22;44209;52.952;6.790;2023-07-02T10:26:58;18.90;99.90
58413;DHT22;44209;52.952;6.790;2023-07-02T10:29:25;19.00;99.90
58413;DHT22;44209;52.952;6.790;2023-07-02T10:31:51;18.90;99.90
58413;DHT22;44209;52.952;6.790;2023-07-02T10:34:33;18.90;99.90
58413;DHT22;44209;52.952;6.790;2023-07-02T10:37:00;19.10;99.90
58413;DHT22;44209;52.952;6.790;2023-07-02T10:39:26;19.40;99.90
58413;DHT22;44209;52.952;6.790;2023-07-02T10:41:52;19.50;99.90
58413;DHT22;44209;52.952;6.790;2023-07-02T10:44:17;19.60;99.90
58413;DHT22;44209;52.952;6.790;2023-07-02T10:46:47;19.70;99.90
58413;DHT22;44209;52.952;6.790;2023-07-02T10:49:14;19.70;99.90
58413;DHT22;44209;52.952;6.790;2023-07-02T10:51:40;19.60;99.90
58413;DHT22;44209;52.952;6.790;2023-07-02T10:54:06;19.70;99.90
58413;DHT22;44209;52.952;6.790;2023-07-02T10:56:31;19.80;99.90
58413;DHT22;44209;52.952;6.790;2023-07-02T10:58:58;19.90;99.90
58413;DHT22;44209;52.952;6.790;2023-07-02T11:01:31;19.80;99.90
58413;DHT22;44209;52.952;6.790;2023-07-02T11:06:30;19.80;99.90
58413;DHT22;44209;52.952;6.790;2023-07-02T11:08:56;19.90;99.90
58413;DHT22;44209;52.952;6.790;2023-07-02T11:11:23;19.90;99.90
58413;DHT22;44209;52.952;6.790;2023-07-02T11:13:50;19.80;99.90
58413;DHT22;44209;52.952;6.790;2023-07-02T11:16:24;19.50;99.90
58413;DHT22;44209;52.952;6.790;2023-07-02T11:19:06;19.30;99.90
58413;DHT22;44209;52.952;6.790;2023-07-02T11:21:33;19.10;99.90
58413;DHT22;44209;52.952;6.790;2023-07-02T11:24:08;18.80;99.90
58413;DHT22;44209;52.952;6.790;2023-07-02T11:26:40;18.50;99.90
58413;DHT22;44209;52.952;6.790;2023-07-02T11:29:18;18.50;99.90
58413;DHT22;44209;52.952;6.790;2023-07-02T11:31:44;18.60;99.90
58413;DHT22;44209;52.952;6.790;2023-07-02T11:34:18;18.70;99.90
58413;DHT22;44209;52.952;6.790;2023-07-02T11:36:44;18.80;99.90
58413;DHT22;44209;52.952;6.790;2023-07-02T11:39:10;18.80;99.90
58413;DHT22;44209;52.952;6.790;2023-07-02T11:41:41;18.70;99.90
58413;DHT22;44209;52.952;6.790;2023-07-02T11:44:08;18.70;99.90
58413;DHT22;44209;52.952;6.790;2023-07-02T11:46:34;18.70;99.90
58413;DHT22;44209;52.952;6.790;2023-07-02T11:49:00;18.60;99.90
58413;DHT22;44209;52.952;6.790;2023-07-02T11:51:26;18.60;99.90
58413;DHT22;44209;52.952;6.790;2023-07-02T11:53:52;18.60;99.90
58413;DHT22;44209;52.952;6.790;2023-07-02T11:56:18;18.80;99.90
58413;DHT22;44209;52.952;6.790;2023-07-02T11:58:44;19.00;99.90
58413;DHT22;44209;52.952;6.790;2023-07-02T12:01:09;19.30;99.90
58413;DHT22;44209;52.952;6.790;2023-07-02T12:03:35;19.40;99.90
58413;DHT22;44209;52.952;6.790;2023-07-02T12:06:01;19.40;99.90
58413;DHT22;44209;52.952;6.790;2023-07-02T12:08:27;19.20;99.90
58413;DHT22;44209;52.952;6.790;2023-07-02T12:10:53;19.00;99.90
58413;DHT22;44209;52.952;6.790;2023-07-02T12:13:18;18.80;99.90
58413;DHT22;44209;52.952;6.790;2023-07-02T12:15:47;18.80;99.90
58413;DHT22;44209;52.952;6.790;2023-07-02T12:18:12;18.80;99.90
58413;DHT22;44209;52.952;6.790;2023-07-02T12:20:39;19.00;99.90
58413;DHT22;44209;52.952;6.790;2023-07-02T12:23:05;19.00;99.90
58413;DHT22;44209;52.952;6.790;2023-07-02T12:25:31;18.90;99.90
58413;DHT22;44209;52.952;6.790;2023-07-02T12:27:57;18.70;99.90
58413;DHT22;44209;52.952;6.790;2023-07-02T12:30:23;18.70;99.90
58413;DHT22;44209;52.952;6.790;2023-07-02T12:32:48;18.90;99.90
58413;DHT22;44209;52.952;6.790;2023-07-02T12:35:14;19.30;99.90
58413;DHT22;44209;52.952;6.790;2023-07-02T12:37:44;19.30;99.90
58413;DHT22;44209;52.952;6.790;2023-07-02T12:43:51;19.20;99.90
58413;DHT22;44209;52.952;6.790;2023-07-02T12:46:17;19.00;99.90
58413;DHT22;44209;52.952;6.790;2023-07-02T12:48:43;18.90;99.90
58413;DHT22;44209;52.952;6.790;2023-07-02T12:51:09;18.90;99.90
58413;DHT22;44209;52.952;6.790;2023-07-02T12:53:35;19.00;99.90
58413;DHT22;44209;52.952;6.790;2023-07-02T12:56:01;19.30;99.90
58413;DHT22;44209;52.952;6.790;2023-07-02T12:58:27;19.60;99.90
58413;DHT22;44209;52.952;6.790;2023-07-02T13:00:52;19.80;99.90
58413;DHT22;44209;52.952;6.790;2023-07-02T13:03:20;19.80;99.90
58413;DHT22;44209;52.952;6.790;2023-07-02T13:05:48;19.60;99.90
58413;DHT22;44209;52.952;6.790;2023-07-02T13:08:14;19.70;99.90
58413;DHT22;44209;52.952;6.790;2023-07-02T13:10:39;19.90;99.90
58413;DHT22;44209;52.952;6.790;2023-07-02T13:13:05;19.90;99.90
58413;DHT22;44209;52.952;6.790;2023-07-02T13:15:31;19.70;99.90
58413;DHT22;44209;52.952;6.790;2023-07-02T13:17:57;19.70;99.90
58413;DHT22;44209;52.952;6.790;2023-07-02T13:20:23;19.60;99.90
58413;DHT22;44209;52.952;6.790;2023-07-02T13:22:49;19.50;99.90
58413;DHT22;44209;52.952;6.790;2023-07-02T13:25:14;19.70;99.90
58413;DHT22;44209;52.952;6.790;2023-07-02T13:27:40;20.00;99.90
58413;DHT22;44209;52.952;6.790;2023-07-02T13:30:06;20.10;99.90
58413;DHT22;44209;52.952;6.790;2023-07-02T13:32:32;20.00;99.90
58413;DHT22;44209;52.952;6.790;2023-07-02T13:34:58;19.90;99.90
58413;DHT22;44209;52.952;6.790;2023-07-02T13:37:24;19.60;99.90
58413;DHT22;44209;52.952;6.790;2023-07-02T13:39:50;19.50;99.90
58413;DHT22;44209;52.952;6.790;2023-07-02T13:42:16;19.50;99.90
58413;DHT22;44209;52.952;6.790;2023-07-02T13:44:42;19.60;99.90
58413;DHT22;44209;52.952;6.790;2023-07-02T13:47:08;19.50;99.90
58413;DHT22;44209;52.952;6.790;2023-07-02T13:49:34;19.40;99.90
58413;DHT22;44209;52.952;6.790;2023-07-02T13:52:00;19.30;99.90
58413;DHT22;44209;52.952;6.790;2023-07-02T13:54:26;19.40;99.90
58413;DHT22;44209;52.952;6.790;2023-07-02T13:56:52;19.30;99.90
58413;DHT22;44209;52.952;6.790;2023-07-02T13:59:19;19.20;99.90
58413;DHT22;44209;52.952;6.790;2023-07-02T14:01:46;19.20;99.90
58413;DHT22;44209;52.952;6.790;2023-07-02T14:04:12;19.20;99.10
58413;DHT22;44209;52.952;6.790;2023-07-02T14:06:38;19.60;99.90
58413;DHT22;44209;52.952;6.790;2023-07-02T14:09:05;19.90;95.70
58413;DHT22;44209;52.952;6.790;2023-07-02T14:11:31;19.90;87.10
58413;DHT22;44209;52.952;6.790;2023-07-02T14:13:57;19.90;81.90
58413;DHT22;44209;52.952;6.790;2023-07-02T14:16:23;20.00;78.90
58413;DHT22;44209;52.952;6.790;2023-07-02T14:18:50;20.40;77.00
58413;DHT22;44209;52.952;6.790;2023-07-02T14:21:16;20.40;74.30
58413;DHT22;44209;52.952;6.790;2023-07-02T14:23:43;20.20;73.00
58413;DHT22;44209;52.952;6.790;2023-07-02T14:26:09;20.10;79.30
58413;DHT22;44209;52.952;6.790;2023-07-02T14:28:34;20.00;84.40
58413;DHT22;44209;52.952;6.790;2023-07-02T14:31:02;19.80;84.40
58413;DHT22;44209;52.952;6.790;2023-07-02T14:33:30;19.70;87.80
58413;DHT22;44209;52.952;6.790;2023-07-02T14:35:56;19.70;91.90
58413;DHT22;44209;52.952;6.790;2023-07-02T14:38:22;19.60;94.60
58413;DHT22;44209;52.952;6.790;2023-07-02T14:40:49;19.70;95.10
58413;DHT22;44209;52.952;6.790;2023-07-02T14:43:16;19.80;95.20
58413;DHT22;44209;52.952;6.790;2023-07-02T14:45:52;19.90;94.20
58413;DHT22;44209;52.952;6.790;2023-07-02T14:48:21;19.90;92.60
58413;DHT22;44209;52.952;6.790;2023-07-02T14:50:52;20.10;82.00
58413;DHT22;44209;52.952;6.790;2023-07-02T14:53:19;20.20;83.00
58413;DHT22;44209;52.952;6.790;2023-07-02T14:55:46;20.00;73.30
58413;DHT22;44209;52.952;6.790;2023-07-02T14:58:12;20.00;70.70
58413;DHT22;44209;52.952;6.790;2023-07-02T15:00:49;20.10;73.80
58413;DHT22;44209;52.952;6.790;2023-07-02T15:03:15;20.00;75.50
58413;DHT22;44209;52.952;6.790;2023-07-02T15:05:42;19.70;77.80
58413;DHT22;44209;52.952;6.790;2023-07-02T15:08:08;19.50;83.80
58413;DHT22;44209;52.952;6.790;2023-07-02T15:10:36;19.40;88.60
58413;DHT22;44209;52.952;6.790;2023-07-02T15:13:05;19.40;88.50
58413;DHT22;44209;52.952;6.790;2023-07-02T15:15:31;19.40;89.50
58413;DHT22;44209;52.952;6.790;2023-07-02T15:17:57;19.30;89.80
58413;DHT22;44209;52.952;6.790;2023-07-02T15:20:23;19.20;90.40
58413;DHT22;44209;52.952;6.790;2023-07-02T15:22:49;19.10;92.00
58413;DHT22;44209;52.952;6.790;2023-07-02T15:25:15;19.30;96.60
58413;DHT22;44209;52.952;6.790;2023-07-02T15:27:41;19.40;86.80
58413;DHT22;44209;52.952;6.790;2023-07-02T15:30:07;19.60;82.30
58413;DHT22;44209;52.952;6.790;2023-07-02T15:32:33;19.70;80.80
58413;DHT22;44209;52.952;6.790;2023-07-02T15:34:58;19.60;80.10
58413;DHT22;44209;52.952;6.790;2023-07-02T15:37:24;19.40;79.70